createdAt,value
2023-02-26T00:06:35.127Z,-0.60
2023-02-26T00:13:37.764Z,-0.50
2023-02-26T00:20:38.411Z,-0.50
2023-02-26T00:27:39.295Z,-0.50
2023-02-26T00:34:40.538Z,-0.40
2023-02-26T00:41:41.114Z,-0.30
2023-02-26T00:49:02.657Z,-0.30
2023-02-26T00:56:02.988Z,-0.30
2023-02-26T01:03:03.752Z,-0.30
2023-02-26T01:10:04.775Z,-0.30
2023-02-26T01:17:35.879Z,-0.30
2023-02-26T01:24:37.764Z,-0.50
2023-02-26T01:31:56.704Z,-0.50
2023-02-26T01:39:29.485Z,-0.70
2023-02-26T01:46:54.722Z,-0.80
2023-02-26T01:53:55.031Z,-0.80
2023-02-26T02:00:55.403Z,-0.80
2023-02-26T02:07:56.706Z,-0.80
2023-02-26T02:15:35.291Z,-0.80
2023-02-26T02:22:43.800Z,-0.80
2023-02-26T02:29:56.625Z,-0.80
2023-02-26T02:37:06.921Z,-0.90
2023-02-26T02:44:11.762Z,-0.90
2023-02-26T02:51:17.634Z,-1.00
2023-02-26T02:58:24.797Z,-1.00
2023-02-26T03:05:25.571Z,-1.10
2023-02-26T03:12:32.209Z,-1.20
2023-02-26T03:19:49.471Z,-1.30
2023-02-26T03:26:59.363Z,-1.30
2023-02-26T03:34:14.096Z,-1.30
2023-02-26T03:41:22.504Z,-1.30
2023-02-26T03:48:27.427Z,-1.30
2023-02-26T03:55:39.644Z,-1.30
2023-02-26T04:03:07.769Z,-1.30
2023-02-26T04:10:11.143Z,-1.30
2023-02-26T04:17:11.794Z,-1.20
2023-02-26T04:24:12.990Z,-1.20
2023-02-26T04:31:14.034Z,-1.20
2023-02-26T04:38:14.867Z,-1.20
2023-02-26T04:45:15.379Z,-1.20
2023-02-26T04:52:15.907Z,-1.30
2023-02-26T04:59:16.224Z,-1.40
2023-02-26T05:06:16.616Z,-1.40
2023-02-26T05:13:16.899Z,-1.50
2023-02-26T05:20:17.665Z,-1.40
2023-02-26T05:27:18.155Z,-1.40
2023-02-26T05:34:20.815Z,-1.40
2023-02-26T05:41:21.537Z,-1.40
2023-02-26T05:48:22.845Z,-1.40
2023-02-26T05:55:23.106Z,-1.50
2023-02-26T06:02:23.541Z,-1.50
2023-02-26T06:09:23.968Z,-1.60
2023-02-26T06:16:25.173Z,-1.60
2023-02-26T06:23:26.142Z,-1.60
2023-02-26T06:30:26.517Z,-1.70
2023-02-26T06:37:26.996Z,-1.60
2023-02-26T06:44:27.250Z,-1.60
2023-02-26T06:51:27.598Z,-1.60
2023-02-26T06:58:28.108Z,-1.60
2023-02-26T07:05:28.499Z,-1.60
2023-02-26T07:12:28.879Z,-1.50
2023-02-26T07:19:29.629Z,-1.40
2023-02-26T07:26:29.755Z,-1.30
2023-02-26T07:33:31.764Z,-1.20
2023-02-26T07:40:32.390Z,-1.10
2023-02-26T07:47:33.113Z,-1.00
2023-02-26T07:54:34.758Z,-0.90
2023-02-26T08:01:35.576Z,-0.70
2023-02-26T08:08:35.882Z,-0.60
2023-02-26T08:15:36.271Z,-0.40
2023-02-26T08:22:36.666Z,-0.20
2023-02-26T08:29:37.050Z,-0.10
2023-02-26T08:36:37.683Z,0.10
2023-02-26T08:43:38.072Z,0.30
2023-02-26T08:50:38.584Z,0.40
2023-02-26T08:57:39.269Z,0.50
2023-02-26T09:04:39.683Z,0.60
2023-02-26T09:11:40.534Z,0.80
2023-02-26T09:18:40.678Z,0.90
2023-02-26T09:25:41.022Z,1.10
2023-02-26T09:32:41.380Z,1.20
2023-02-26T09:39:41.872Z,1.40
2023-02-26T09:46:58.491Z,1.40
2023-02-26T09:54:00.878Z,1.40
2023-02-26T10:01:22.456Z,1.50
2023-02-26T10:08:26.498Z,1.60
2023-02-26T10:15:41.238Z,1.90
2023-02-26T10:23:04.840Z,2.00
2023-02-26T10:30:19.128Z,2.40
2023-02-26T10:37:57.372Z,2.70
2023-02-26T10:45:21.216Z,2.90
2023-02-26T10:52:26.184Z,3.10
2023-02-26T10:59:27.307Z,3.20
2023-02-26T11:06:34.349Z,3.40
2023-02-26T11:13:37.772Z,3.60
2023-02-26T11:20:42.251Z,3.70
2023-02-26T11:27:46.025Z,3.60
2023-02-26T11:34:51.136Z,3.60
2023-02-26T11:41:55.293Z,3.80
2023-02-26T11:48:58.577Z,4.00
2023-02-26T11:56:11.796Z,4.20
2023-02-26T12:03:22.037Z,4.50
2023-02-26T12:10:33.102Z,4.70
2023-02-26T12:18:07.007Z,4.80
2023-02-26T12:25:30.328Z,4.90
2023-02-26T12:32:43.070Z,4.80
2023-02-26T12:40:06.283Z,4.80
2023-02-26T12:47:44.598Z,4.80
2023-02-26T12:55:19.974Z,4.90
2023-02-26T13:02:41.473Z,5.20
2023-02-26T13:10:03.114Z,5.20
2023-02-26T13:17:10.451Z,5.00
2023-02-26T13:24:18.495Z,4.80
2023-02-26T13:31:40.148Z,5.00
2023-02-26T13:38:49.622Z,5.50
2023-02-26T13:45:52.753Z,5.90
2023-02-26T13:52:56.448Z,6.20
2023-02-26T14:00:02.038Z,6.10
2023-02-26T14:07:14.890Z,6.10
2023-02-26T14:14:22.633Z,6.40
2023-02-26T14:21:35.361Z,6.60
2023-02-26T14:28:43.324Z,6.80
2023-02-26T14:35:49.324Z,7.20
2023-02-26T14:42:59.280Z,8.00
2023-02-26T14:50:00.434Z,9.30
2023-02-26T14:57:18.671Z,10.50
2023-02-26T15:04:46.083Z,11.20
2023-02-26T15:11:57.634Z,11.80
2023-02-26T15:19:16.364Z,11.80
2023-02-26T15:26:23.440Z,12.40
2023-02-26T15:33:24.964Z,11.60
2023-02-26T15:40:27.112Z,9.90
2023-02-26T15:47:29.781Z,8.20
2023-02-26T15:54:42.836Z,7.30
2023-02-26T16:01:43.495Z,6.60
2023-02-26T16:08:44.773Z,6.20
2023-02-26T16:15:47.334Z,6.00
2023-02-26T16:23:15.345Z,5.70
2023-02-26T16:30:19.432Z,5.20
2023-02-26T16:37:23.095Z,4.90
2023-02-26T16:44:37.799Z,4.70
2023-02-26T16:51:40.771Z,4.40
2023-02-26T16:58:41.168Z,4.20
2023-02-26T17:05:49.379Z,4.00
2023-02-26T17:12:52.636Z,3.80
2023-02-26T17:19:53.047Z,3.70
2023-02-26T17:26:53.298Z,3.50
2023-02-26T17:33:54.508Z,3.40
2023-02-26T17:40:55.626Z,3.30
2023-02-26T17:47:55.986Z,3.10
2023-02-26T17:54:56.360Z,3.00
2023-02-26T18:01:56.831Z,2.80
2023-02-26T18:08:57.242Z,2.70
2023-02-26T18:15:58.746Z,2.60
2023-02-26T18:22:59.006Z,2.50
2023-02-26T18:30:01.194Z,2.40
2023-02-26T18:37:03.630Z,2.30
2023-02-26T18:44:04.213Z,2.20
2023-02-26T18:51:04.619Z,2.10
2023-02-26T18:58:05.165Z,2.00
2023-02-26T19:05:06.162Z,2.00
2023-02-26T19:12:09.030Z,1.90
2023-02-26T19:19:12.615Z,1.70
2023-02-26T19:26:13.178Z,1.60
2023-02-26T19:33:13.496Z,1.50
2023-02-26T19:40:16.663Z,1.50
2023-02-26T19:47:17.071Z,1.40
2023-02-26T19:54:18.263Z,1.30
2023-02-26T20:01:18.561Z,1.20
2023-02-26T20:08:20.084Z,1.20
2023-02-26T20:15:21.081Z,1.20
2023-02-26T20:22:22.842Z,1.30
2023-02-26T20:29:23.533Z,1.40
2023-02-26T20:36:24.139Z,1.40
2023-02-26T20:43:25.261Z,1.40
2023-02-26T20:50:25.629Z,1.50
2023-02-26T20:57:26.062Z,1.40
2023-02-26T21:04:27.801Z,1.50
2023-02-26T21:11:36.623Z,1.40
2023-02-26T21:18:37.418Z,1.30
2023-02-26T21:25:39.460Z,1.20
2023-02-26T21:32:40.577Z,1.10
2023-02-26T21:39:41.156Z,1.00
2023-02-26T21:46:41.514Z,0.80
2023-02-26T21:53:42.485Z,0.70
2023-02-26T22:00:43.253Z,0.50
2023-02-26T22:07:44.357Z,0.50
2023-02-26T22:14:44.790Z,0.40
2023-02-26T22:21:45.087Z,0.40
2023-02-26T22:28:45.509Z,0.30
2023-02-26T22:35:45.940Z,0.30
2023-02-26T22:42:46.693Z,0.20
2023-02-26T22:49:46.776Z,0.10
2023-02-26T22:56:47.117Z,0.00
2023-02-26T23:03:47.529Z,-0.10
2023-02-26T23:10:47.936Z,-0.10
2023-02-26T23:17:48.241Z,0.00
2023-02-26T23:24:48.705Z,-0.10
2023-02-26T23:31:51.140Z,-0.10
2023-02-26T23:38:51.753Z,-0.10
2023-02-26T23:45:52.252Z,-0.10
2023-02-26T23:52:52.688Z,-0.20
2023-02-26T23:59:53.101Z,-0.20
